sensor_id;sensor_type;location;lat;lon;timestamp;P1;durP1;ratioP1;P2;durP2;ratioP2
37895;SDS011;23733;53.254;10.430;2024-03-06T00:02:15;11.23;;;6.97;;
37895;SDS011;23733;53.254;10.430;2024-03-06T00:05:09;9.13;;;6.57;;
37895;SDS011;23733;53.254;10.430;2024-03-06T00:07:36;11.83;;;7.23;;
37895;SDS011;23733;53.254;10.430;2024-03-06T00:10:03;10.50;;;7.20;;
37895;SDS011;23733;53.254;10.430;2024-03-06T00:12:39;11.20;;;7.43;;
37895;SDS011;23733;53.254;10.430;2024-03-06T00:15:25;9.77;;;6.60;;
37895;SDS011;23733;53.254;10.430;2024-03-06T00:17:56;10.67;;;6.60;;
37895;SDS011;23733;53.254;10.430;2024-03-06T00:20:23;12.17;;;6.90;;
37895;SDS011;23733;53.254;10.430;2024-03-06T00:23:10;10.07;;;6.17;;
37895;SDS011;23733;53.254;10.430;2024-03-06T00:25:59;11.13;;;7.27;;
37895;SDS011;23733;53.254;10.430;2024-03-06T00:28:40;11.03;;;6.97;;
37895;SDS011;23733;53.254;10.430;2024-03-06T00:31:44;11.73;;;7.70;;
37895;SDS011;23733;53.254;10.430;2024-03-06T00:34:19;15.40;;;7.90;;
37895;SDS011;23733;53.254;10.430;2024-03-06T00:36:45;13.70;;;7.73;;
37895;SDS011;23733;53.254;10.430;2024-03-06T00:39:16;15.23;;;8.50;;
37895;SDS011;23733;53.254;10.430;2024-03-06T00:41:55;13.27;;;7.87;;
37895;SDS011;23733;53.254;10.430;2024-03-06T00:44:52;11.43;;;7.80;;
37895;SDS011;23733;53.254;10.430;2024-03-06T00:47:39;11.17;;;7.37;;
37895;SDS011;23733;53.254;10.430;2024-03-06T00:50:25;10.40;;;7.20;;
37895;SDS011;23733;53.254;10.430;2024-03-06T00:52:52;10.73;;;6.93;;
37895;SDS011;23733;53.254;10.430;2024-03-06T00:55:21;10.37;;;7.17;;
37895;SDS011;23733;53.254;10.430;2024-03-06T00:58:07;10.90;;;6.90;;
37895;SDS011;23733;53.254;10.430;2024-03-06T01:00:34;14.00;;;7.90;;
37895;SDS011;23733;53.254;10.430;2024-03-06T01:03:07;13.03;;;8.00;;
37895;SDS011;23733;53.254;10.430;2024-03-06T01:05:52;13.43;;;6.63;;
37895;SDS011;23733;53.254;10.430;2024-03-06T01:08:26;11.73;;;7.10;;
37895;SDS011;23733;53.254;10.430;2024-03-06T01:10:53;14.60;;;7.90;;
37895;SDS011;23733;53.254;10.430;2024-03-06T01:13:35;13.27;;;7.57;;
37895;SDS011;23733;53.254;10.430;2024-03-06T01:16:16;11.40;;;7.43;;
37895;SDS011;23733;53.254;10.430;2024-03-06T01:21:30;11.37;;;6.90;;
37895;SDS011;23733;53.254;10.430;2024-03-06T01:24:12;11.30;;;6.93;;
37895;SDS011;23733;53.254;10.430;2024-03-06T01:26:43;11.67;;;6.90;;
37895;SDS011;23733;53.254;10.430;2024-03-06T01:29:11;12.33;;;6.90;;
37895;SDS011;23733;53.254;10.430;2024-03-06T01:31:43;10.37;;;6.93;;
37895;SDS011;23733;53.254;10.430;2024-03-06T01:34:12;11.07;;;6.80;;
37895;SDS011;23733;53.254;10.430;2024-03-06T01:36:38;12.57;;;7.60;;
37895;SDS011;23733;53.254;10.430;2024-03-06T01:39:04;12.97;;;7.40;;
37895;SDS011;23733;53.254;10.430;2024-03-06T01:41:35;10.73;;;6.67;;
37895;SDS011;23733;53.254;10.430;2024-03-06T01:44:15;11.20;;;7.00;;
37895;SDS011;23733;53.254;10.430;2024-03-06T01:46:43;11.13;;;7.00;;
37895;SDS011;23733;53.254;10.430;2024-03-06T01:49:34;12.00;;;7.37;;
37895;SDS011;23733;53.254;10.430;2024-03-06T01:52:00;10.60;;;6.80;;
37895;SDS011;23733;53.254;10.430;2024-03-06T01:54:30;11.87;;;6.87;;
37895;SDS011;23733;53.254;10.430;2024-03-06T01:57:00;14.00;;;8.20;;
37895;SDS011;23733;53.254;10.430;2024-03-06T01:59:32;9.50;;;6.87;;
37895;SDS011;23733;53.254;10.430;2024-03-06T02:01:59;10.53;;;6.63;;
37895;SDS011;23733;53.254;10.430;2024-03-06T02:04:26;10.43;;;6.60;;
37895;SDS011;23733;53.254;10.430;2024-03-06T02:06:56;11.13;;;6.90;;
37895;SDS011;23733;53.254;10.430;2024-03-06T02:09:28;10.83;;;6.57;;
37895;SDS011;23733;53.254;10.430;2024-03-06T02:11:58;12.07;;;7.13;;
37895;SDS011;23733;53.254;10.430;2024-03-06T02:14:26;11.30;;;7.80;;
37895;SDS011;23733;53.254;10.430;2024-03-06T02:16:52;12.97;;;6.90;;
37895;SDS011;23733;53.254;10.430;2024-03-06T02:19:42;12.90;;;7.00;;
37895;SDS011;23733;53.254;10.430;2024-03-06T02:22:17;13.43;;;7.17;;
37895;SDS011;23733;53.254;10.430;2024-03-06T02:24:52;11.80;;;7.17;;
37895;SDS011;23733;53.254;10.430;2024-03-06T02:27:20;10.57;;;6.40;;
37895;SDS011;23733;53.254;10.430;2024-03-06T02:29:51;12.63;;;6.90;;
37895;SDS011;23733;53.254;10.430;2024-03-06T02:32:21;10.77;;;6.63;;
37895;SDS011;23733;53.254;10.430;2024-03-06T02:34:53;11.77;;;6.80;;
37895;SDS011;23733;53.254;10.430;2024-03-06T02:37:21;12.57;;;6.80;;
37895;SDS011;23733;53.254;10.430;2024-03-06T02:40:09;11.53;;;7.27;;
37895;SDS011;23733;53.254;10.430;2024-03-06T02:42:36;10.57;;;7.27;;
37895;SDS011;23733;53.254;10.430;2024-03-06T02:45:07;10.33;;;6.97;;
37895;SDS011;23733;53.254;10.430;2024-03-06T02:47:41;11.73;;;7.27;;
37895;SDS011;23733;53.254;10.430;2024-03-06T02:50:15;11.80;;;7.03;;
37895;SDS011;23733;53.254;10.430;2024-03-06T02:52:43;12.00;;;7.03;;
37895;SDS011;23733;53.254;10.430;2024-03-06T02:55:09;12.20;;;7.13;;
37895;SDS011;23733;53.254;10.430;2024-03-06T02:57:46;12.07;;;7.83;;
37895;SDS011;23733;53.254;10.430;2024-03-06T03:00:14;11.17;;;7.30;;
37895;SDS011;23733;53.254;10.430;2024-03-06T03:02:41;12.20;;;7.10;;
37895;SDS011;23733;53.254;10.430;2024-03-06T03:05:08;9.97;;;6.40;;
37895;SDS011;23733;53.254;10.430;2024-03-06T03:07:35;10.37;;;7.07;;
37895;SDS011;23733;53.254;10.430;2024-03-06T03:10:03;13.27;;;7.33;;
37895;SDS011;23733;53.254;10.430;2024-03-06T03:12:30;11.27;;;7.07;;
37895;SDS011;23733;53.254;10.430;2024-03-06T03:14:57;11.13;;;6.83;;
37895;SDS011;23733;53.254;10.430;2024-03-06T03:17:39;12.17;;;7.03;;
37895;SDS011;23733;53.254;10.430;2024-03-06T03:20:08;11.83;;;7.47;;
37895;SDS011;23733;53.254;10.430;2024-03-06T03:22:43;11.37;;;7.20;;
37895;SDS011;23733;53.254;10.430;2024-03-06T03:25:10;12.77;;;7.53;;
37895;SDS011;23733;53.254;10.430;2024-03-06T03:27:43;10.73;;;6.90;;
37895;SDS011;23733;53.254;10.430;2024-03-06T03:30:09;12.80;;;7.10;;
37895;SDS011;23733;53.254;10.430;2024-03-06T03:32:40;10.17;;;6.63;;
37895;SDS011;23733;53.254;10.430;2024-03-06T03:35:10;13.43;;;7.20;;
37895;SDS011;23733;53.254;10.430;2024-03-06T03:37:37;11.10;;;6.90;;
37895;SDS011;23733;53.254;10.430;2024-03-06T03:40:03;11.80;;;6.60;;
37895;SDS011;23733;53.254;10.430;2024-03-06T03:42:32;10.47;;;6.70;;
37895;SDS011;23733;53.254;10.430;2024-03-06T03:44:58;9.37;;;6.37;;
37895;SDS011;23733;53.254;10.430;2024-03-06T03:47:25;10.73;;;6.37;;
37895;SDS011;23733;53.254;10.430;2024-03-06T03:50:03;10.23;;;6.73;;
37895;SDS011;23733;53.254;10.430;2024-03-06T03:52:37;11.13;;;6.60;;
37895;SDS011;23733;53.254;10.430;2024-03-06T03:55:08;11.60;;;7.90;;
37895;SDS011;23733;53.254;10.430;2024-03-06T03:57:48;13.77;;;8.07;;
37895;SDS011;23733;53.254;10.430;2024-03-06T04:00:15;13.23;;;7.53;;
37895;SDS011;23733;53.254;10.430;2024-03-06T04:02:42;12.87;;;8.37;;
37895;SDS011;23733;53.254;10.430;2024-03-06T04:05:08;14.23;;;8.53;;
37895;SDS011;23733;53.254;10.430;2024-03-06T04:07:36;14.47;;;8.03;;
37895;SDS011;23733;53.254;10.430;2024-03-06T04:10:04;12.33;;;8.10;;
37895;SDS011;23733;53.254;10.430;2024-03-06T04:12:34;13.30;;;7.87;;
37895;SDS011;23733;53.254;10.430;2024-03-06T04:15:03;15.93;;;8.47;;
37895;SDS011;23733;53.254;10.430;2024-03-06T04:17:30;16.43;;;8.57;;
37895;SDS011;23733;53.254;10.430;2024-03-06T04:19:56;17.37;;;8.43;;
37895;SDS011;23733;53.254;10.430;2024-03-06T04:22:22;12.90;;;8.33;;
37895;SDS011;23733;53.254;10.430;2024-03-06T04:24:49;13.43;;;8.13;;
37895;SDS011;23733;53.254;10.430;2024-03-06T04:27:15;13.10;;;8.13;;
37895;SDS011;23733;53.254;10.430;2024-03-06T04:29:42;16.73;;;8.07;;
37895;SDS011;23733;53.254;10.430;2024-03-06T04:32:08;13.07;;;8.07;;
37895;SDS011;23733;53.254;10.430;2024-03-06T04:34:35;13.90;;;8.13;;
37895;SDS011;23733;53.254;10.430;2024-03-06T04:37:02;12.13;;;7.53;;
37895;SDS011;23733;53.254;10.430;2024-03-06T04:39:42;12.03;;;7.90;;
37895;SDS011;23733;53.254;10.430;2024-03-06T04:42:22;12.87;;;7.57;;
37895;SDS011;23733;53.254;10.430;2024-03-06T04:44:49;14.77;;;8.30;;
37895;SDS011;23733;53.254;10.430;2024-03-06T04:47:44;11.17;;;8.13;;
37895;SDS011;23733;53.254;10.430;2024-03-06T04:50:11;12.70;;;8.83;;
37895;SDS011;23733;53.254;10.430;2024-03-06T04:52:44;13.60;;;8.20;;
37895;SDS011;23733;53.254;10.430;2024-03-06T04:55:22;12.40;;;8.03;;
37895;SDS011;23733;53.254;10.430;2024-03-06T04:58:08;13.97;;;8.90;;
37895;SDS011;23733;53.254;10.430;2024-03-06T05:00:43;11.77;;;7.93;;
37895;SDS011;23733;53.254;10.430;2024-03-06T05:03:38;11.90;;;7.73;;
37895;SDS011;23733;53.254;10.430;2024-03-06T05:06:10;11.83;;;8.03;;
37895;SDS011;23733;53.254;10.430;2024-03-06T05:08:51;12.90;;;8.37;;
37895;SDS011;23733;53.254;10.430;2024-03-06T05:11:22;12.93;;;7.90;;
37895;SDS011;23733;53.254;10.430;2024-03-06T05:13:48;13.97;;;7.87;;
37895;SDS011;23733;53.254;10.430;2024-03-06T05:16:15;13.23;;;8.27;;
37895;SDS011;23733;53.254;10.430;2024-03-06T05:18:49;12.43;;;7.60;;
37895;SDS011;23733;53.254;10.430;2024-03-06T05:21:15;13.27;;;8.00;;
37895;SDS011;23733;53.254;10.430;2024-03-06T05:24:15;12.67;;;8.23;;
37895;SDS011;23733;53.254;10.430;2024-03-06T05:26:50;10.30;;;7.37;;
37895;SDS011;23733;53.254;10.430;2024-03-06T05:29:17;14.83;;;8.83;;
37895;SDS011;23733;53.254;10.430;2024-03-06T05:31:56;12.73;;;7.90;;
37895;SDS011;23733;53.254;10.430;2024-03-06T05:34:22;10.53;;;7.83;;
37895;SDS011;23733;53.254;10.430;2024-03-06T05:36:50;11.90;;;8.00;;
37895;SDS011;23733;53.254;10.430;2024-03-06T05:39:20;12.17;;;8.20;;
37895;SDS011;23733;53.254;10.430;2024-03-06T05:42:20;12.40;;;8.23;;
37895;SDS011;23733;53.254;10.430;2024-03-06T05:44:49;16.57;;;8.30;;
37895;SDS011;23733;53.254;10.430;2024-03-06T05:47:35;14.97;;;7.90;;
37895;SDS011;23733;53.254;10.430;2024-03-06T05:50:21;12.97;;;7.97;;
37895;SDS011;23733;53.254;10.430;2024-03-06T05:52:49;10.63;;;7.33;;
37895;SDS011;23733;53.254;10.430;2024-03-06T05:55:20;11.53;;;7.50;;
37895;SDS011;23733;53.254;10.430;2024-03-06T06:01:04;11.00;;;7.40;;
37895;SDS011;23733;53.254;10.430;2024-03-06T06:03:33;11.17;;;7.37;;
37895;SDS011;23733;53.254;10.430;2024-03-06T06:06:27;12.07;;;7.67;;
37895;SDS011;23733;53.254;10.430;2024-03-06T06:12:06;11.67;;;7.00;;
37895;SDS011;23733;53.254;10.430;2024-03-06T06:14:35;11.50;;;7.00;;
37895;SDS011;23733;53.254;10.430;2024-03-06T06:20:19;9.27;;;6.67;;
37895;SDS011;23733;53.254;10.430;2024-03-06T06:22:49;9.20;;;7.00;;
37895;SDS011;23733;53.254;10.430;2024-03-06T06:28:23;10.33;;;6.70;;
37895;SDS011;23733;53.254;10.430;2024-03-06T06:31:52;11.30;;;7.07;;
37895;SDS011;23733;53.254;10.430;2024-03-06T06:37:56;10.20;;;6.87;;
37895;SDS011;23733;53.254;10.430;2024-03-06T06:40:25;10.87;;;7.27;;
37895;SDS011;23733;53.254;10.430;2024-03-06T06:42:53;10.37;;;7.37;;
37895;SDS011;23733;53.254;10.430;2024-03-06T06:45:19;10.20;;;6.73;;
37895;SDS011;23733;53.254;10.430;2024-03-06T06:48:02;12.60;;;7.80;;
37895;SDS011;23733;53.254;10.430;2024-03-06T06:57:22;11.17;;;7.27;;
37895;SDS011;23733;53.254;10.430;2024-03-06T07:00:16;11.30;;;7.47;;
37895;SDS011;23733;53.254;10.430;2024-03-06T07:03:09;11.33;;;7.83;;
37895;SDS011;23733;53.254;10.430;2024-03-06T07:05:43;12.67;;;8.07;;
37895;SDS011;23733;53.254;10.430;2024-03-06T07:08:12;11.10;;;7.43;;
37895;SDS011;23733;53.254;10.430;2024-03-06T07:13:50;14.57;;;8.10;;
37895;SDS011;23733;53.254;10.430;2024-03-06T07:16:18;11.87;;;7.87;;
37895;SDS011;23733;53.254;10.430;2024-03-06T07:18:47;13.30;;;7.87;;
37895;SDS011;23733;53.254;10.430;2024-03-06T07:24:54;12.53;;;7.37;;
37895;SDS011;23733;53.254;10.430;2024-03-06T07:27:24;13.37;;;8.13;;
37895;SDS011;23733;53.254;10.430;2024-03-06T07:30:03;11.33;;;7.93;;
37895;SDS011;23733;53.254;10.430;2024-03-06T07:32:51;10.93;;;7.93;;
37895;SDS011;23733;53.254;10.430;2024-03-06T07:35:27;11.40;;;8.23;;
37895;SDS011;23733;53.254;10.430;2024-03-06T07:41:01;19.40;;;8.20;;
37895;SDS011;23733;53.254;10.430;2024-03-06T07:43:28;10.77;;;8.00;;
37895;SDS011;23733;53.254;10.430;2024-03-06T07:46:04;12.13;;;8.27;;
37895;SDS011;23733;53.254;10.430;2024-03-06T07:48:51;11.73;;;7.97;;
37895;SDS011;23733;53.254;10.430;2024-03-06T07:51:38;13.77;;;8.70;;
37895;SDS011;23733;53.254;10.430;2024-03-06T07:54:31;14.60;;;8.80;;
37895;SDS011;23733;53.254;10.430;2024-03-06T07:57:02;15.63;;;9.17;;
37895;SDS011;23733;53.254;10.430;2024-03-06T07:59:35;14.97;;;9.37;;
37895;SDS011;23733;53.254;10.430;2024-03-06T08:02:23;17.70;;;10.37;;
37895;SDS011;23733;53.254;10.430;2024-03-06T08:11:03;14.10;;;9.50;;
37895;SDS011;23733;53.254;10.430;2024-03-06T08:16:41;18.40;;;11.40;;
37895;SDS011;23733;53.254;10.430;2024-03-06T08:19:52;15.33;;;9.40;;
37895;SDS011;23733;53.254;10.430;2024-03-06T08:22:46;13.10;;;9.20;;
37895;SDS011;23733;53.254;10.430;2024-03-06T08:25:30;17.40;;;9.50;;
37895;SDS011;23733;53.254;10.430;2024-03-06T08:28:36;15.27;;;9.37;;
37895;SDS011;23733;53.254;10.430;2024-03-06T08:34:56;16.47;;;9.20;;
37895;SDS011;23733;53.254;10.430;2024-03-06T08:38:04;15.03;;;8.93;;
37895;SDS011;23733;53.254;10.430;2024-03-06T08:50:35;16.53;;;9.63;;
37895;SDS011;23733;53.254;10.430;2024-03-06T08:53:01;17.30;;;10.67;;
37895;SDS011;23733;53.254;10.430;2024-03-06T08:55:28;27.50;;;10.80;;
37895;SDS011;23733;53.254;10.430;2024-03-06T09:11:06;14.30;;;9.07;;
37895;SDS011;23733;53.254;10.430;2024-03-06T09:32:30;14.83;;;9.30;;
37895;SDS011;23733;53.254;10.430;2024-03-06T09:41:54;13.70;;;8.63;;
37895;SDS011;23733;53.254;10.430;2024-03-06T09:51:12;18.40;;;10.27;;
37895;SDS011;23733;53.254;10.430;2024-03-06T09:54:18;15.77;;;9.40;;
37895;SDS011;23733;53.254;10.430;2024-03-06T10:12:58;18.47;;;9.37;;
37895;SDS011;23733;53.254;10.430;2024-03-06T10:16:04;15.83;;;9.60;;
37895;SDS011;23733;53.254;10.430;2024-03-06T10:25:25;15.53;;;8.60;;
37895;SDS011;23733;53.254;10.430;2024-03-06T10:40:20;18.90;;;9.87;;
37895;SDS011;23733;53.254;10.430;2024-03-06T10:46:32;17.57;;;9.90;;
37895;SDS011;23733;53.254;10.430;2024-03-06T10:49:47;19.60;;;9.60;;
37895;SDS011;23733;53.254;10.430;2024-03-06T10:52:42;12.87;;;9.37;;
37895;SDS011;23733;53.254;10.430;2024-03-06T11:01:45;15.53;;;10.70;;
37895;SDS011;23733;53.254;10.430;2024-03-06T11:04:56;11.90;;;8.53;;
37895;SDS011;23733;53.254;10.430;2024-03-06T11:07:52;20.40;;;10.47;;
37895;SDS011;23733;53.254;10.430;2024-03-06T11:13:23;15.47;;;9.73;;
37895;SDS011;23733;53.254;10.430;2024-03-06T11:28:47;14.13;;;8.63;;
37895;SDS011;23733;53.254;10.430;2024-03-06T11:37:25;13.73;;;9.03;;
37895;SDS011;23733;53.254;10.430;2024-03-06T11:40:42;12.60;;;8.37;;
37895;SDS011;23733;53.254;10.430;2024-03-06T11:49:29;17.97;;;9.23;;
37895;SDS011;23733;53.254;10.430;2024-03-06T12:07:46;12.43;;;8.20;;
37895;SDS011;23733;53.254;10.430;2024-03-06T12:10:12;12.90;;;7.77;;
37895;SDS011;23733;53.254;10.430;2024-03-06T12:19:03;14.43;;;7.97;;
37895;SDS011;23733;53.254;10.430;2024-03-06T12:31:07;11.47;;;8.00;;
37895;SDS011;23733;53.254;10.430;2024-03-06T12:37:09;12.70;;;7.47;;
37895;SDS011;23733;53.254;10.430;2024-03-06T12:40:14;13.53;;;8.17;;
37895;SDS011;23733;53.254;10.430;2024-03-06T12:43:22;12.07;;;7.17;;
37895;SDS011;23733;53.254;10.430;2024-03-06T12:56:12;11.63;;;7.60;;
37895;SDS011;23733;53.254;10.430;2024-03-06T12:59:18;12.53;;;7.90;;
37895;SDS011;23733;53.254;10.430;2024-03-06T13:02:42;13.03;;;8.20;;
37895;SDS011;23733;53.254;10.430;2024-03-06T13:05:50;11.50;;;7.17;;
37895;SDS011;23733;53.254;10.430;2024-03-06T13:11:30;12.57;;;7.60;;
37895;SDS011;23733;53.254;10.430;2024-03-06T13:14:09;11.30;;;7.77;;
37895;SDS011;23733;53.254;10.430;2024-03-06T13:19:51;13.93;;;8.37;;
37895;SDS011;23733;53.254;10.430;2024-03-06T13:22:33;11.77;;;7.80;;
37895;SDS011;23733;53.254;10.430;2024-03-06T13:25:56;13.27;;;7.57;;
37895;SDS011;23733;53.254;10.430;2024-03-06T13:28:48;9.80;;;7.53;;
37895;SDS011;23733;53.254;10.430;2024-03-06T13:31:26;11.27;;;7.70;;
37895;SDS011;23733;53.254;10.430;2024-03-06T13:34:18;13.40;;;7.97;;
37895;SDS011;23733;53.254;10.430;2024-03-06T13:36:49;11.57;;;8.20;;
37895;SDS011;23733;53.254;10.430;2024-03-06T13:39:18;10.63;;;7.40;;
37895;SDS011;23733;53.254;10.430;2024-03-06T13:41:46;11.00;;;7.63;;
37895;SDS011;23733;53.254;10.430;2024-03-06T13:44:12;12.70;;;7.93;;
37895;SDS011;23733;53.254;10.430;2024-03-06T13:47:05;12.43;;;8.03;;
37895;SDS011;23733;53.254;10.430;2024-03-06T13:49:56;12.47;;;7.47;;
37895;SDS011;23733;53.254;10.430;2024-03-06T13:52:22;14.57;;;7.73;;
37895;SDS011;23733;53.254;10.430;2024-03-06T13:54:51;12.23;;;6.90;;
37895;SDS011;23733;53.254;10.430;2024-03-06T13:57:18;11.17;;;7.70;;
37895;SDS011;23733;53.254;10.430;2024-03-06T14:00:00;12.10;;;7.43;;
37895;SDS011;23733;53.254;10.430;2024-03-06T14:03:13;9.30;;;7.10;;
37895;SDS011;23733;53.254;10.430;2024-03-06T14:05:39;10.97;;;7.23;;
37895;SDS011;23733;53.254;10.430;2024-03-06T14:08:07;10.47;;;6.90;;
37895;SDS011;23733;53.254;10.430;2024-03-06T14:11:09;10.30;;;6.90;;
37895;SDS011;23733;53.254;10.430;2024-03-06T14:13:55;11.07;;;6.90;;
37895;SDS011;23733;53.254;10.430;2024-03-06T14:16:56;11.23;;;6.60;;
37895;SDS011;23733;53.254;10.430;2024-03-06T14:20:01;12.53;;;7.50;;
37895;SDS011;23733;53.254;10.430;2024-03-06T14:22:43;12.50;;;7.40;;
37895;SDS011;23733;53.254;10.430;2024-03-06T14:25:48;11.43;;;6.77;;
37895;SDS011;23733;53.254;10.430;2024-03-06T14:28:45;9.10;;;6.33;;
37895;SDS011;23733;53.254;10.430;2024-03-06T14:31:11;13.70;;;6.83;;
37895;SDS011;23733;53.254;10.430;2024-03-06T14:33:39;11.20;;;6.57;;
37895;SDS011;23733;53.254;10.430;2024-03-06T14:36:24;13.87;;;7.43;;
37895;SDS011;23733;53.254;10.430;2024-03-06T14:39:04;10.97;;;7.20;;
37895;SDS011;23733;53.254;10.430;2024-03-06T14:44:56;11.33;;;6.73;;
37895;SDS011;23733;53.254;10.430;2024-03-06T14:47:43;12.50;;;6.87;;
37895;SDS011;23733;53.254;10.430;2024-03-06T14:50:48;10.17;;;6.70;;
37895;SDS011;23733;53.254;10.430;2024-03-06T14:53:20;10.20;;;6.30;;
37895;SDS011;23733;53.254;10.430;2024-03-06T14:56:30;8.63;;;6.20;;
37895;SDS011;23733;53.254;10.430;2024-03-06T14:58:57;8.03;;;5.70;;
37895;SDS011;23733;53.254;10.430;2024-03-06T15:01:23;10.00;;;6.13;;
37895;SDS011;23733;53.254;10.430;2024-03-06T15:03:51;9.00;;;5.67;;
37895;SDS011;23733;53.254;10.430;2024-03-06T15:06:26;12.27;;;5.90;;
37895;SDS011;23733;53.254;10.430;2024-03-06T15:12:12;12.57;;;5.73;;
37895;SDS011;23733;53.254;10.430;2024-03-06T15:15:17;9.83;;;6.20;;
37895;SDS011;23733;53.254;10.430;2024-03-06T15:20:38;7.13;;;5.60;;
37895;SDS011;23733;53.254;10.430;2024-03-06T15:23:04;10.20;;;6.07;;
37895;SDS011;23733;53.254;10.430;2024-03-06T15:25:31;8.10;;;5.80;;
37895;SDS011;23733;53.254;10.430;2024-03-06T15:27:57;8.97;;;5.73;;
37895;SDS011;23733;53.254;10.430;2024-03-06T15:30:24;8.33;;;6.00;;
37895;SDS011;23733;53.254;10.430;2024-03-06T15:32:50;9.10;;;6.30;;
37895;SDS011;23733;53.254;10.430;2024-03-06T15:35:18;7.57;;;5.40;;
37895;SDS011;23733;53.254;10.430;2024-03-06T15:37:44;8.07;;;5.87;;
37895;SDS011;23733;53.254;10.430;2024-03-06T15:40:11;9.53;;;6.10;;
37895;SDS011;23733;53.254;10.430;2024-03-06T15:42:37;8.17;;;6.00;;
37895;SDS011;23733;53.254;10.430;2024-03-06T15:45:04;8.33;;;5.83;;
37895;SDS011;23733;53.254;10.430;2024-03-06T15:47:30;8.47;;;5.57;;
37895;SDS011;23733;53.254;10.430;2024-03-06T15:50:00;8.30;;;5.57;;
37895;SDS011;23733;53.254;10.430;2024-03-06T15:52:27;8.87;;;5.60;;
37895;SDS011;23733;53.254;10.430;2024-03-06T15:54:54;7.80;;;4.90;;
37895;SDS011;23733;53.254;10.430;2024-03-06T15:57:20;8.63;;;5.70;;
37895;SDS011;23733;53.254;10.430;2024-03-06T16:03:03;6.77;;;5.43;;
37895;SDS011;23733;53.254;10.430;2024-03-06T16:06:24;10.50;;;5.73;;
37895;SDS011;23733;53.254;10.430;2024-03-06T16:09:26;8.90;;;6.20;;
37895;SDS011;23733;53.254;10.430;2024-03-06T16:12:11;7.73;;;5.73;;
37895;SDS011;23733;53.254;10.430;2024-03-06T16:14:39;6.50;;;5.13;;
37895;SDS011;23733;53.254;10.430;2024-03-06T16:17:05;8.30;;;5.80;;
37895;SDS011;23733;53.254;10.430;2024-03-06T16:19:48;8.43;;;5.40;;
37895;SDS011;23733;53.254;10.430;2024-03-06T16:22:14;7.93;;;5.47;;
37895;SDS011;23733;53.254;10.430;2024-03-06T16:33:56;9.20;;;5.00;;
37895;SDS011;23733;53.254;10.430;2024-03-06T16:36:52;7.23;;;5.50;;
37895;SDS011;23733;53.254;10.430;2024-03-06T16:39:18;7.20;;;5.20;;
37895;SDS011;23733;53.254;10.430;2024-03-06T16:41:45;7.30;;;5.20;;
37895;SDS011;23733;53.254;10.430;2024-03-06T16:44:11;7.40;;;5.40;;
37895;SDS011;23733;53.254;10.430;2024-03-06T16:46:39;7.20;;;5.17;;
37895;SDS011;23733;53.254;10.430;2024-03-06T16:49:18;6.83;;;5.13;;
37895;SDS011;23733;53.254;10.430;2024-03-06T16:57:33;6.13;;;4.80;;
37895;SDS011;23733;53.254;10.430;2024-03-06T17:00:02;6.20;;;4.77;;
37895;SDS011;23733;53.254;10.430;2024-03-06T17:02:50;8.47;;;5.27;;
37895;SDS011;23733;53.254;10.430;2024-03-06T17:05:39;7.20;;;5.30;;
37895;SDS011;23733;53.254;10.430;2024-03-06T17:08:06;6.67;;;4.80;;
37895;SDS011;23733;53.254;10.430;2024-03-06T17:10:37;9.37;;;5.27;;
37895;SDS011;23733;53.254;10.430;2024-03-06T17:13:06;6.77;;;4.50;;
37895;SDS011;23733;53.254;10.430;2024-03-06T17:18:29;7.47;;;5.13;;
37895;SDS011;23733;53.254;10.430;2024-03-06T17:21:36;9.20;;;5.20;;
37895;SDS011;23733;53.254;10.430;2024-03-06T17:24:03;6.90;;;4.90;;
37895;SDS011;23733;53.254;10.430;2024-03-06T17:26:30;8.10;;;5.60;;
37895;SDS011;23733;53.254;10.430;2024-03-06T17:29:06;7.83;;;5.87;;
37895;SDS011;23733;53.254;10.430;2024-03-06T17:32:26;9.37;;;5.00;;
37895;SDS011;23733;53.254;10.430;2024-03-06T17:45:16;10.90;;;6.13;;
37895;SDS011;23733;53.254;10.430;2024-03-06T17:48:28;9.67;;;5.70;;
37895;SDS011;23733;53.254;10.430;2024-03-06T17:51:15;9.30;;;5.53;;
37895;SDS011;23733;53.254;10.430;2024-03-06T17:53:41;7.73;;;5.30;;
37895;SDS011;23733;53.254;10.430;2024-03-06T17:56:11;7.30;;;4.80;;
37895;SDS011;23733;53.254;10.430;2024-03-06T17:58:37;6.60;;;4.93;;
37895;SDS011;23733;53.254;10.430;2024-03-06T18:01:17;10.60;;;5.03;;
37895;SDS011;23733;53.254;10.430;2024-03-06T18:03:52;5.80;;;4.50;;
37895;SDS011;23733;53.254;10.430;2024-03-06T18:06:21;6.97;;;4.60;;
37895;SDS011;23733;53.254;10.430;2024-03-06T18:08:48;6.80;;;4.87;;
37895;SDS011;23733;53.254;10.430;2024-03-06T18:11:16;8.20;;;4.67;;
37895;SDS011;23733;53.254;10.430;2024-03-06T18:13:43;6.63;;;4.73;;
37895;SDS011;23733;53.254;10.430;2024-03-06T18:16:13;7.37;;;5.13;;
37895;SDS011;23733;53.254;10.430;2024-03-06T18:18:44;5.70;;;4.60;;
37895;SDS011;23733;53.254;10.430;2024-03-06T18:21:24;7.47;;;5.40;;
37895;SDS011;23733;53.254;10.430;2024-03-06T18:24:06;6.93;;;4.93;;
37895;SDS011;23733;53.254;10.430;2024-03-06T18:26:45;6.10;;;4.53;;
37895;SDS011;23733;53.254;10.430;2024-03-06T18:32:04;6.37;;;4.93;;
37895;SDS011;23733;53.254;10.430;2024-03-06T18:34:52;6.60;;;4.90;;
37895;SDS011;23733;53.254;10.430;2024-03-06T18:37:26;7.67;;;5.50;;
37895;SDS011;23733;53.254;10.430;2024-03-06T18:52:35;9.70;;;5.33;;
37895;SDS011;23733;53.254;10.430;2024-03-06T18:58:15;9.67;;;6.67;;
37895;SDS011;23733;53.254;10.430;2024-03-06T19:03:48;8.47;;;6.37;;
37895;SDS011;23733;53.254;10.430;2024-03-06T19:06:52;9.10;;;5.47;;
37895;SDS011;23733;53.254;10.430;2024-03-06T19:09:59;8.33;;;5.33;;
37895;SDS011;23733;53.254;10.430;2024-03-06T19:15:41;10.97;;;6.33;;
37895;SDS011;23733;53.254;10.430;2024-03-06T19:25:08;8.63;;;5.93;;
37895;SDS011;23733;53.254;10.430;2024-03-06T19:28:19;10.20;;;6.90;;
37895;SDS011;23733;53.254;10.430;2024-03-06T19:31:33;9.83;;;6.23;;
37895;SDS011;23733;53.254;10.430;2024-03-06T19:41:13;9.30;;;6.87;;
37895;SDS011;23733;53.254;10.430;2024-03-06T19:50:38;8.93;;;6.47;;
37895;SDS011;23733;53.254;10.430;2024-03-06T19:54:04;10.67;;;7.40;;
37895;SDS011;23733;53.254;10.430;2024-03-06T19:56:52;13.13;;;7.30;;
37895;SDS011;23733;53.254;10.430;2024-03-06T20:00:03;13.57;;;8.00;;
37895;SDS011;23733;53.254;10.430;2024-03-06T20:06:17;19.23;;;13.27;;
37895;SDS011;23733;53.254;10.430;2024-03-06T20:15:58;11.23;;;8.43;;
37895;SDS011;23733;53.254;10.430;2024-03-06T20:18:41;13.37;;;8.73;;
37895;SDS011;23733;53.254;10.430;2024-03-06T20:21:30;20.70;;;13.27;;
37895;SDS011;23733;53.254;10.430;2024-03-06T20:24:06;14.43;;;9.57;;
37895;SDS011;23733;53.254;10.430;2024-03-06T20:27:04;15.63;;;11.47;;
37895;SDS011;23733;53.254;10.430;2024-03-06T20:30:01;22.23;;;14.03;;
37895;SDS011;23733;53.254;10.430;2024-03-06T20:33:17;15.67;;;10.87;;
37895;SDS011;23733;53.254;10.430;2024-03-06T20:38:51;15.20;;;8.87;;
37895;SDS011;23733;53.254;10.430;2024-03-06T20:42:14;12.77;;;8.73;;
37895;SDS011;23733;53.254;10.430;2024-03-06T20:44:41;12.73;;;7.87;;
37895;SDS011;23733;53.254;10.430;2024-03-06T20:51:12;12.10;;;8.13;;
37895;SDS011;23733;53.254;10.430;2024-03-06T20:54:24;13.73;;;9.10;;
37895;SDS011;23733;53.254;10.430;2024-03-06T21:03:13;13.47;;;8.63;;
37895;SDS011;23733;53.254;10.430;2024-03-06T21:06:26;12.87;;;8.90;;